Time;durP1;ratioP1;P1;durP2;ratioP2;P2;SDS_P1;SDS_P2;PMS_P1;PMS_P2;Temp;Humidity;BMP_temperature;BMP_pressure;BME280_temperature;BME280_humidity;BME280_pressure;Samples;Min_cycle;Max_cycle;Signal;HPM_P1;HPM_P2
2023/01/16 00:00:52;;;;;;;2.35;1.55;;;;;;;3.58;100.00;99580.66;5046090;28;20032;-57
2023/01/16 00:03:17;;;;;;;4.35;1.52;;;;;;;3.55;100.00;99580.84;5052283;28;20411;-57
2023/01/16 00:05:43;;;;;;;2.78;1.70;;;;;;;3.51;100.00;99570.59;5054270;28;20035;-55
2023/01/16 00:08:09;;;;;;;2.30;1.40;;;;;;;3.50;100.00;99562.81;5050692;28;20029;-56
2023/01/16 00:10:34;;;;;;;3.13;1.42;;;;;;;3.46;100.00;99562.16;5045920;28;20504;-58
2023/01/16 00:12:59;;;;;;;3.28;1.63;;;;;;;3.43;100.00;99557.13;5053573;28;20021;-57
2023/01/16 00:15:25;;;;;;;3.97;1.90;;;;;;;3.40;100.00;99557.34;5051906;28;20052;-57
2023/01/16 00:17:50;;;;;;;8.23;1.90;;;;;;;3.38;100.00;99555.75;5035578;28;20077;-57
2023/01/16 00:20:17;;;;;;;4.07;2.10;;;;;;;3.36;100.00;99555.00;5051919;28;20540;-57
2023/01/16 00:22:42;;;;;;;6.15;2.05;;;;;;;3.33;100.00;99550.81;5051590;28;20029;-58
2023/01/16 00:25:08;;;;;;;2.65;1.75;;;;;;;3.29;100.00;99542.28;5053765;28;20367;-57
2023/01/16 00:27:33;;;;;;;4.50;1.92;;;;;;;3.27;100.00;99548.59;5053468;28;20111;-57
2023/01/16 00:29:59;;;;;;;4.93;2.22;;;;;;;3.25;100.00;99542.63;5046869;28;20028;-57
2023/01/16 00:32:24;;;;;;;5.05;1.90;;;;;;;3.22;100.00;99538.41;5051872;28;20056;-57
2023/01/16 00:34:49;;;;;;;3.85;2.03;;;;;;;3.21;100.00;99530.63;5053564;28;20430;-56
2023/01/16 00:37:14;;;;;;;6.25;2.03;;;;;;;3.19;100.00;99541.25;5052717;28;20116;-57
2023/01/16 00:39:40;;;;;;;6.70;2.15;;;;;;;3.17;100.00;99530.00;5053870;28;20482;-58
2023/01/16 00:42:06;;;;;;;7.85;2.30;;;;;;;3.17;100.00;99537.06;5053267;28;20395;-56
2023/01/16 00:44:31;;;;;;;6.60;2.17;;;;;;;3.14;100.00;99530.22;5053547;28;20054;-54
2023/01/16 00:46:56;;;;;;;6.65;2.00;;;;;;;3.13;100.00;99524.13;5040576;28;20119;-57
2023/01/16 00:49:22;;;;;;;8.50;2.05;;;;;;;3.12;100.00;99519.00;5050993;28;20029;-57
2023/01/16 00:51:47;;;;;;;7.00;2.60;;;;;;;3.11;100.00;99512.91;5050476;28;20040;-56
2023/01/16 00:54:12;;;;;;;6.15;2.17;;;;;;;3.09;100.00;99509.53;5053377;28;20033;-56
2023/01/16 00:56:38;;;;;;;4.57;2.28;;;;;;;3.08;100.00;99507.00;5052937;28;20029;-58
2023/01/16 00:59:03;;;;;;;9.23;1.92;;;;;;;3.07;100.00;99500.94;5043734;28;20152;-58
2023/01/16 01:01:28;;;;;;;9.18;2.15;;;;;;;3.04;100.00;99490.63;5049386;28;20024;-57
2023/01/16 01:03:53;;;;;;;9.13;2.15;;;;;;;3.03;100.00;99488.97;5052697;28;20028;-57
2023/01/16 01:06:19;;;;;;;8.65;2.38;;;;;;;3.01;100.00;99487.38;5041694;28;20047;-57
2023/01/16 01:08:44;;;;;;;6.72;2.03;;;;;;;2.98;100.00;99477.91;5053000;28;20024;-56
2023/01/16 01:11:12;;;;;;;5.25;2.17;;;;;;;2.96;100.00;99472.81;5046019;28;20031;-55
2023/01/16 01:13:38;;;;;;;6.05;2.17;;;;;;;2.95;100.00;99472.91;5052970;28;20481;-57
2023/01/16 01:16:04;;;;;;;5.72;2.30;;;;;;;2.91;100.00;99467.00;5052392;28;20756;-57
2023/01/16 01:18:30;;;;;;;6.40;2.45;;;;;;;2.90;100.00;99464.50;5052304;28;20056;-57
2023/01/16 01:20:55;;;;;;;8.68;1.75;;;;;;;2.87;100.00;99456.84;5046397;28;20036;-58
2023/01/16 01:23:20;;;;;;;9.88;2.53;;;;;;;2.84;100.00;99455.25;5052350;28;20126;-56
2023/01/16 01:25:45;;;;;;;5.07;2.15;;;;;;;2.83;100.00;99450.09;5046049;28;20040;-56
2023/01/16 01:28:11;;;;;;;6.25;1.88;;;;;;;2.81;100.00;99449.38;5051794;28;20021;-59
2023/01/16 01:30:37;;;;;;;7.28;2.15;;;;;;;2.78;100.00;99440.78;5049015;28;20040;-57
2023/01/16 01:33:02;;;;;;;8.02;2.05;;;;;;;2.73;100.00;99432.38;5052419;28;20032;-57
2023/01/16 01:35:28;;;;;;;4.60;1.77;;;;;;;2.72;100.00;99429.88;5051885;28;20020;-58
2023/01/16 01:37:53;;;;;;;5.78;2.22;;;;;;;2.69;100.00;99422.19;5050453;28;20029;-56
2023/01/16 01:40:18;;;;;;;3.75;1.65;;;;;;;2.67;100.00;99421.47;5048722;28;20074;-57
2023/01/16 01:42:44;;;;;;;5.70;1.70;;;;;;;2.63;100.00;99414.75;5051985;28;20068;-55
2023/01/16 01:45:20;;;;;;;6.15;1.80;;;;;;;2.58;100.00;99407.16;5051811;28;20071;-57
2023/01/16 01:47:54;;;;;;;6.40;1.90;;;;;;;2.55;100.00;99391.69;5049833;28;20029;-55
2023/01/16 01:50:44;;;;;;;10.25;2.15;;;;;;;2.54;100.00;99388.19;5054173;28;20075;-57
2023/01/16 01:53:16;;;;;;;7.28;2.08;;;;;;;2.50;100.00;99383.25;5052036;28;20811;-58
2023/01/16 01:55:46;;;;;;;5.45;1.73;;;;;;;2.46;100.00;99382.63;5052341;28;20446;-57
2023/01/16 01:58:16;;;;;;;;;;;;;;;2.50;100.00;99375.38;5046167;28;20029;-57
2023/01/16 02:00:42;;;;;;;6.57;1.95;;;;;;;2.46;100.00;99363.44;5042273;28;20274;-58
2023/01/16 02:03:13;;;;;;;8.00;2.35;;;;;;;2.40;100.00;99352.44;5051674;28;20025;-56
2023/01/16 02:05:45;;;;;;;6.00;2.03;;;;;;;2.41;100.00;99353.25;5052291;28;20031;-56
2023/01/16 02:08:14;;;;;;;9.65;2.75;;;;;;;2.40;100.00;99346.38;5050900;28;20075;-53
2023/01/16 02:10:45;;;;;;;9.57;2.45;;;;;;;2.39;100.00;99347.28;5052138;28;20035;-56
2023/01/16 02:13:11;;;;;;;4.70;2.00;;;;;;;2.39;100.00;99342.06;5051504;28;20016;-55
2023/01/16 02:19:14;;;;;;;5.70;1.90;;;;;;;2.38;100.00;99342.97;5051656;28;20032;-54
2023/01/16 02:21:34;;;;;;;5.65;1.83;;;;;;;2.38;100.00;99324.66;5040962;28;20396;-56
2023/01/16 02:24:21;;;;;;;5.03;1.90;;;;;;;2.36;100.00;99326.53;5037744;28;20056;-55
2023/01/16 02:27:03;;;;;;;7.25;2.15;;;;;;;2.34;100.00;99320.56;5047094;28;20030;-56
2023/01/16 02:29:43;;;;;;;8.30;2.00;;;;;;;2.34;100.00;99310.09;5046247;28;20371;-53
2023/01/16 02:32:27;;;;;;;9.93;2.13;;;;;;;2.34;100.00;99295.19;5052085;28;20025;-54
2023/01/16 02:35:17;;;;;;;5.75;1.80;;;;;;;2.33;100.00;99280.44;5050687;28;20021;-56
2023/01/16 02:38:12;;;;;;;7.18;1.80;;;;;;;2.34;100.00;99276.84;5046353;28;20055;-55
2023/01/16 02:40:50;;;;;;;6.78;1.88;;;;;;;2.32;100.00;99267.44;5051750;28;20047;-57
2023/01/16 02:43:27;;;;;;;7.78;1.77;;;;;;;2.31;100.00;99253.47;5049448;28;20040;-57
2023/01/16 02:46:19;;;;;;;7.22;1.88;;;;;;;2.30;100.00;99241.34;5051794;28;20041;-56
2023/01/16 02:48:59;;;;;;;9.05;1.88;;;;;;;2.30;100.00;99236.09;5040919;28;20040;-54
2023/01/16 02:51:30;;;;;;;4.68;2.10;;;;;;;2.29;100.00;99217.88;5049719;28;20500;-57
2023/01/16 02:54:33;;;;;;;6.90;1.70;;;;;;;2.30;100.00;99215.13;5038337;28;20032;-57
2023/01/16 02:57:12;;;;;;;6.90;2.13;;;;;;;2.30;100.00;99214.28;5048137;28;20131;-56
2023/01/16 02:59:41;;;;;;;6.82;2.38;;;;;;;2.27;100.00;99210.09;5053250;28;20032;-55
2023/01/16 03:02:06;;;;;;;5.43;1.93;;;;;;;2.26;100.00;99203.19;5054539;28;20021;-56
2023/01/16 03:04:52;;;;;;;8.02;2.33;;;;;;;2.26;100.00;99191.88;5051635;28;20100;-55
2023/01/16 03:07:23;;;;;;;6.32;1.77;;;;;;;2.24;100.00;99188.53;5045171;28;20033;-57
2023/01/16 03:10:03;;;;;;;6.35;1.90;;;;;;;2.24;100.00;99181.50;5050937;28;20037;-55
2023/01/16 03:12:47;;;;;;;7.13;2.10;;;;;;;2.21;100.00;99174.72;5050448;28;20026;-58
2023/01/16 03:15:47;;;;;;;4.40;1.80;;;;;;;2.24;100.00;99165.78;5054864;28;20468;-57
2023/01/16 03:18:40;;;;;;;6.60;1.90;;;;;;;2.25;100.00;99153.50;4960498;28;20050;-57
2023/01/16 03:21:12;;;;;;;5.93;2.10;;;;;;;2.22;100.00;99151.97;5049572;28;20064;-58
2023/01/16 03:23:58;;;;;;;8.60;2.00;;;;;;;2.24;100.00;99134.34;5054467;28;20021;-57
2023/01/16 03:26:29;;;;;;;7.43;1.95;;;;;;;2.21;100.00;99130.19;5050207;28;20472;-57
2023/01/16 03:29:13;;;;;;;6.97;1.77;;;;;;;2.26;100.00;99118.53;5047550;28;20475;-56
2023/01/16 03:31:48;;;;;;;7.38;2.10;;;;;;;2.27;100.00;99125.44;5043060;28;20067;-57
2023/01/16 03:34:26;;;;;;;5.88;2.00;;;;;;;2.27;100.00;99110.56;5054440;28;20029;-57
2023/01/16 03:37:02;;;;;;;6.57;1.88;;;;;;;2.28;100.00;99095.66;5053025;28;20035;-55
2023/01/16 03:39:36;;;;;;;6.35;2.00;;;;;;;2.28;100.00;99088.66;5054377;28;20025;-57
2023/01/16 03:42:14;;;;;;;6.30;2.10;;;;;;;2.29;100.00;99084.25;5054492;28;20049;-55
2023/01/16 03:44:49;;;;;;;6.95;2.00;;;;;;;2.30;100.00;99073.69;5036480;28;20470;-55
2023/01/16 03:47:23;;;;;;;6.55;1.90;;;;;;;2.31;100.00;99067.47;5051283;28;20399;-55
2023/01/16 03:49:54;;;;;;;5.93;2.08;;;;;;;2.32;100.00;99061.28;5054370;28;20079;-56
2023/01/16 03:52:22;;;;;;;5.78;1.85;;;;;;;2.32;100.00;99055.22;5051223;28;20029;-54
2023/01/16 03:55:02;;;;;;;9.48;2.20;;;;;;;2.35;100.00;99037.50;5054359;28;20111;-56
2023/01/16 03:57:32;;;;;;;7.15;2.03;;;;;;;2.35;100.00;99015.72;5053911;28;20079;-56
2023/01/16 03:59:59;;;;;;;6.78;1.98;;;;;;;2.36;100.00;99010.34;5050612;28;20033;-54
2023/01/16 04:02:36;;;;;;;9.93;2.30;;;;;;;2.38;100.00;99005.00;5054108;28;20595;-56
2023/01/16 04:05:18;;;;;;;3.90;1.80;;;;;;;2.40;100.00;99003.94;5053695;28;20425;-56
2023/01/16 04:07:47;;;;;;;6.97;1.88;;;;;;;2.42;100.00;98993.34;5049184;28;20445;-57
2023/01/16 04:10:18;;;;;;;7.20;2.22;;;;;;;2.43;100.00;98989.78;5051128;28;20025;-54
2023/01/16 04:12:49;;;;;;;8.40;1.83;;;;;;;2.44;100.00;98985.38;5054214;28;20083;-56
2023/01/16 04:15:17;;;;;;;5.88;2.15;;;;;;;2.43;100.00;98974.06;5052322;28;20131;-58
2023/01/16 04:17:42;;;;;;;6.68;2.10;;;;;;;2.44;100.00;98967.88;5052277;28;20554;-56
2023/01/16 04:20:09;;;;;;;11.93;2.30;;;;;;;2.46;100.00;98955.50;5053496;28;20096;-57
2023/01/16 04:22:35;;;;;;;8.75;2.38;;;;;;;2.47;100.00;98956.34;5047850;28;20034;-57
2023/01/16 04:25:03;;;;;;;9.07;2.67;;;;;;;2.48;100.00;98945.75;5053727;28;20032;-56
2023/01/16 04:27:28;;;;;;;5.45;2.10;;;;;;;2.49;100.00;98931.69;5041214;28;20108;-53
2023/01/16 04:29:55;;;;;;;9.88;2.55;;;;;;;2.50;100.00;98922.88;5053716;28;20055;-56
2023/01/16 04:32:20;;;;;;;7.90;2.50;;;;;;;2.56;100.00;98913.72;5052083;28;20368;-54
2023/01/16 04:34:46;;;;;;;12.07;2.83;;;;;;;2.57;100.00;98907.53;5053211;28;20028;-53
2023/01/16 04:37:15;;;;;;;8.60;2.60;;;;;;;2.58;100.00;98902.19;5053367;28;20036;-53
2023/01/16 04:39:41;;;;;;;10.95;2.75;;;;;;;2.61;100.00;98887.19;5053376;28;20040;-53
2023/01/16 04:42:07;;;;;;;10.48;2.35;;;;;;;2.62;100.00;98878.38;5051173;28;20041;-54
2023/01/16 04:44:32;;;;;;;8.85;2.47;;;;;;;2.63;100.00;98867.78;5053540;28;20075;-53
2023/01/16 04:46:58;;;;;;;7.13;2.30;;;;;;;2.66;100.00;98854.41;5052873;28;20482;-54
2023/01/16 04:49:23;;;;;;;9.07;2.08;;;;;;;2.67;100.00;98844.78;5051625;28;20037;-53
2023/01/16 04:51:48;;;;;;;8.80;2.22;;;;;;;2.69;100.00;98835.00;5053383;28;20506;-53
2023/01/16 04:54:16;;;;;;;6.18;2.67;;;;;;;2.70;100.00;98828.84;5052960;28;20081;-54
2023/01/16 04:56:41;;;;;;;9.63;2.55;;;;;;;2.73;100.00;98815.47;5053167;28;20417;-53
2023/01/16 04:59:08;;;;;;;10.05;2.42;;;;;;;2.75;100.00;98809.16;5051691;28;20025;-55
2023/01/16 05:01:34;;;;;;;8.43;2.33;;;;;;;2.76;100.00;98787.25;5053155;28;20044;-53
2023/01/16 05:04:05;;;;;;;7.22;1.85;;;;;;;2.80;100.00;98785.22;5053016;28;20024;-56
2023/01/16 05:06:31;;;;;;;10.40;2.50;;;;;;;2.81;100.00;98781.63;5052807;28;20036;-54
2023/01/16 05:08:57;;;;;;;5.68;2.20;;;;;;;2.83;100.00;98766.63;5051366;28;20025;-57
2023/01/16 05:11:22;;;;;;;9.02;2.10;;;;;;;2.86;100.00;98760.31;5052416;28;20167;-55
2023/01/16 05:13:47;;;;;;;8.02;2.25;;;;;;;2.90;100.00;98756.50;5053000;28;20037;-56
2023/01/16 05:16:12;;;;;;;9.35;2.15;;;;;;;2.93;100.00;98756.22;5052579;28;20057;-57
2023/01/16 05:18:38;;;;;;;9.98;2.22;;;;;;;2.97;100.00;98739.31;5051248;28;20024;-56
2023/01/16 05:21:04;;;;;;;9.68;2.15;;;;;;;3.01;100.00;98730.25;5047122;28;20017;-57
2023/01/16 05:23:31;;;;;;;8.23;2.03;;;;;;;3.03;100.00;98728.34;5052451;28;20391;-57
2023/01/16 05:25:56;;;;;;;6.57;2.13;;;;;;;3.04;100.00;98711.66;5052380;28;20025;-57
2023/01/16 05:28:22;;;;;;;8.05;2.20;;;;;;;3.06;100.00;98707.09;5049786;28;20028;-58
2023/01/16 05:30:48;;;;;;;8.40;2.10;;;;;;;3.08;100.00;98697.34;5053943;28;20024;-58
2023/01/16 05:33:13;;;;;;;3.95;1.88;;;;;;;3.09;100.00;98682.44;5052742;28;20387;-57
2023/01/16 05:35:39;;;;;;;10.95;2.30;;;;;;;3.10;100.00;98668.38;5051959;28;20039;-57
2023/01/16 05:38:04;;;;;;;7.45;1.92;;;;;;;3.12;100.00;98661.22;5049511;28;20068;-56
2023/01/16 05:40:29;;;;;;;5.55;2.05;;;;;;;3.13;100.00;98647.97;5046511;28;20036;-56
2023/01/16 05:42:55;;;;;;;5.13;2.05;;;;;;;3.14;100.00;98646.19;5051621;28;20031;-58
2023/01/16 05:45:20;;;;;;;5.50;1.85;;;;;;;3.15;100.00;98634.75;5046392;28;20513;-57
2023/01/16 05:47:45;;;;;;;8.70;2.00;;;;;;;3.15;100.00;98627.69;5048945;28;20029;-57
2023/01/16 05:50:11;;;;;;;5.13;1.95;;;;;;;3.19;100.00;98617.78;5052121;28;20441;-55
2023/01/16 05:52:36;;;;;;;4.47;1.92;;;;;;;3.18;100.00;98608.25;5051992;28;20123;-57
2023/01/16 05:55:01;;;;;;;6.57;1.90;;;;;;;3.19;100.00;98609.91;5033217;28;20543;-54
2023/01/16 05:57:27;;;;;;;6.38;2.13;;;;;;;3.22;100.00;98608.84;5051735;28;20033;-54
2023/01/16 05:59:52;;;;;;;5.53;1.88;;;;;;;3.23;100.00;98603.47;5040519;28;20029;-58
2023/01/16 06:02:19;;;;;;;5.05;1.90;;;;;;;3.24;100.00;98596.41;5051510;28;20029;-57
2023/01/16 06:04:45;;;;;;;4.68;1.73;;;;;;;3.27;100.00;98601.41;5051956;28;20494;-57
2023/01/16 06:07:11;;;;;;;4.22;1.98;;;;;;;3.27;100.00;98588.31;5051716;28;20017;-55
2023/01/16 06:09:36;;;;;;;3.97;1.38;;;;;;;3.29;100.00;98578.50;5047709;28;20453;-58
2023/01/16 06:12:01;;;;;;;4.88;1.98;;;;;;;3.32;100.00;98583.50;5051554;28;20021;-58
2023/01/16 06:14:26;;;;;;;3.97;1.85;;;;;;;3.32;100.00;98563.34;5048865;28;20112;-58
2023/01/16 06:16:52;;;;;;;4.78;1.77;;;;;;;3.33;100.00;98564.16;5051158;28;20064;-58
2023/01/16 06:19:17;;;;;;;7.25;1.92;;;;;;;3.34;100.00;98560.59;5051743;28;20104;-59
2023/01/16 06:21:42;;;;;;;7.32;2.70;;;;;;;3.33;100.00;98557.16;5048974;28;20021;-59
2023/01/16 06:24:08;;;;;;;9.50;3.15;;;;;;;3.34;100.00;98550.09;5045062;28;20387;-58
2023/01/16 06:26:33;;;;;;;6.28;2.47;;;;;;;3.33;100.00;98549.28;5047808;28;20029;-58
2023/01/16 06:28:58;;;;;;;4.95;3.40;;;;;;;3.34;100.00;98531.72;5044801;28;20025;-58
2023/01/16 06:31:24;;;;;;;9.40;3.72;;;;;;;3.33;100.00;98532.69;5052433;28;20589;-57
2023/01/16 06:33:49;;;;;;;8.93;3.47;;;;;;;3.37;100.00;98530.66;5037051;28;20029;-58
2023/01/16 06:36:15;;;;;;;9.68;4.90;;;;;;;3.35;100.00;98517.66;5053962;28;20629;-59
2023/01/16 06:38:41;;;;;;;5.53;2.10;;;;;;;3.36;100.00;98500.94;5055792;28;20387;-59
2023/01/16 06:41:06;;;;;;;4.32;3.05;;;;;;;3.35;100.00;98491.41;5043613;28;20075;-58
2023/01/16 06:43:31;;;;;;;3.72;1.90;;;;;;;3.36;100.00;98484.38;5055590;28;20029;-58
2023/01/16 06:45:57;;;;;;;2.58;1.63;;;;;;;3.35;100.00;98467.81;5055472;28;20033;-58
2023/01/16 06:48:22;;;;;;;6.25;1.80;;;;;;;3.35;100.00;98465.19;5053931;28;20029;-60
2023/01/16 06:50:48;;;;;;;5.70;1.90;;;;;;;3.35;100.00;98446.81;5055331;28;20441;-57
2023/01/16 06:53:13;;;;;;;6.70;1.88;;;;;;;3.32;100.00;98429.53;5053600;28;20064;-58
2023/01/16 06:55:40;;;;;;;4.90;1.55;;;;;;;3.35;100.00;98425.81;5054538;28;20064;-57
2023/01/16 06:58:06;;;;;;;6.60;1.77;;;;;;;3.36;100.00;98413.53;5052776;28;20032;-58
2023/01/16 07:00:31;;;;;;;7.63;1.58;;;;;;;3.33;100.00;98398.88;5050895;28;20025;-58
2023/01/16 07:02:57;;;;;;;4.65;1.45;;;;;;;3.34;100.00;98390.03;5051697;28;20433;-58
2023/01/16 07:05:24;;;;;;;6.22;1.65;;;;;;;3.33;100.00;98396.25;5052095;28;20017;-59
2023/01/16 07:07:50;;;;;;;6.80;1.65;;;;;;;3.34;100.00;98376.94;5052268;28;20036;-59
2023/01/16 07:10:16;;;;;;;5.70;2.15;;;;;;;3.38;100.00;98372.25;5034804;28;20040;-62
2023/01/16 07:12:42;;;;;;;3.78;2.08;;;;;;;3.34;100.00;98362.00;5037285;28;20381;-60
2023/01/16 07:23:25;;;;;;;3.35;1.92;;;;;;;3.36;100.00;98317.28;5048637;28;20106;-61
2023/01/16 07:25:53;;;;;;;4.65;2.25;;;;;;;3.37;100.00;98310.25;5038989;28;20045;-59
2023/01/16 07:28:19;;;;;;;3.42;1.65;;;;;;;3.36;100.00;98312.03;5046716;28;20395;-60
2023/01/16 07:30:45;;;;;;;6.55;1.77;;;;;;;3.37;100.00;98299.75;5052126;28;20040;-59
2023/01/16 07:33:11;;;;;;;4.65;1.67;;;;;;;3.38;100.00;98294.38;5051054;28;20024;-59
2023/01/16 07:35:36;;;;;;;4.30;1.60;;;;;;;3.40;100.00;98294.22;5045127;28;20037;-60
2023/01/16 07:38:02;;;;;;;4.22;1.27;;;;;;;3.42;100.00;98293.13;5043780;28;20382;-60
2023/01/16 07:40:28;;;;;;;5.43;1.40;;;;;;;3.39;100.00;98272.41;5043463;28;20037;-59
2023/01/16 07:42:53;;;;;;;4.93;1.60;;;;;;;3.39;100.00;98266.34;5037428;28;20561;-60
2023/01/16 07:45:18;;;;;;;5.95;1.92;;;;;;;3.40;100.00;98263.59;5040123;28;20037;-59
2023/01/16 07:47:44;;;;;;;3.97;1.60;;;;;;;3.42;100.00;98259.03;5040446;28;20075;-60
2023/01/16 07:50:09;;;;;;;1.52;1.35;;;;;;;3.41;100.00;98257.34;5046143;28;20854;-60
2023/01/16 07:52:35;;;;;;;3.75;1.30;;;;;;;3.42;100.00;98247.72;5037488;28;20037;-60
2023/01/16 07:55:00;;;;;;;2.40;1.30;;;;;;;3.43;100.00;98249.34;5042263;28;20392;-60
2023/01/16 07:57:25;;;;;;;5.38;1.65;;;;;;;3.43;100.00;98241.47;5037524;28;20037;-59
2023/01/16 07:59:51;;;;;;;6.93;2.08;;;;;;;3.42;100.00;98238.03;5041661;28;20032;-60
2023/01/16 08:02:16;;;;;;;7.30;1.65;;;;;;;3.43;100.00;98223.09;5041432;28;20025;-60
2023/01/16 08:04:41;;;;;;;2.67;1.40;;;;;;;3.43;100.00;98212.59;5043658;28;20112;-63
2023/01/16 08:07:07;;;;;;;4.05;1.55;;;;;;;3.42;100.00;98216.22;5041211;28;20041;-57
2023/01/16 08:09:32;;;;;;;6.47;1.63;;;;;;;3.43;100.00;98199.50;5042728;28;20048;-60
2023/01/16 08:11:58;;;;;;;4.15;1.63;;;;;;;3.46;100.00;98193.97;5040113;28;20399;-60
2023/01/16 08:14:23;;;;;;;5.07;1.85;;;;;;;3.45;100.00;98187.09;5041203;28;20037;-60
2023/01/16 08:16:48;;;;;;;4.25;1.40;;;;;;;3.42;100.00;98169.81;5038135;28;20464;-60
2023/01/16 08:19:14;;;;;;;6.25;1.60;;;;;;;3.44;100.00;98174.91;5040290;28;20044;-58
2023/01/16 08:21:39;;;;;;;3.65;1.50;;;;;;;3.44;100.00;98175.75;5041364;28;20486;-60
2023/01/16 08:24:05;;;;;;;4.22;1.67;;;;;;;3.44;100.00;98162.63;5041643;28;20033;-60
2023/01/16 08:26:30;;;;;;;5.03;1.85;;;;;;;3.44;100.00;98157.38;5036052;28;20047;-61
2023/01/16 08:28:56;;;;;;;5.57;1.70;;;;;;;3.45;100.00;98148.53;5035031;28;20022;-59
2023/01/16 08:31:21;;;;;;;3.95;1.50;;;;;;;3.45;100.00;98148.53;5037632;28;20124;-60
2023/01/16 08:33:49;;;;;;;4.18;1.35;;;;;;;3.48;100.00;98152.66;5035803;28;20033;-61
2023/01/16 08:36:16;;;;;;;3.53;1.20;;;;;;;3.47;100.00;98140.53;5034738;28;20463;-60
2023/01/16 08:38:42;;;;;;;3.08;1.60;;;;;;;3.49;100.00;98133.34;5039690;28;20100;-59
2023/01/16 08:51:21;;;;;;;7.47;1.83;;;;;;;3.50;100.00;98141.09;5038202;28;20167;-58
2023/01/16 08:52:06;;;;;;;2.47;1.50;;;;;;;3.58;100.00;98119.41;5048155;28;20044;-60
2023/01/16 08:54:31;;;;;;;1.88;1.35;;;;;;;3.55;100.00;98116.19;5047061;28;20056;-59
2023/01/16 08:56:57;;;;;;;2.15;1.42;;;;;;;3.56;100.00;98117.88;5047064;28;20483;-60
2023/01/16 08:59:23;;;;;;;3.92;1.85;;;;;;;3.58;100.00;98111.53;5049001;28;20494;-59
2023/01/16 09:01:48;;;;;;;1.27;1.08;;;;;;;3.58;100.00;98121.19;5051167;28;20039;-58
2023/01/16 09:04:14;;;;;;;4.22;1.55;;;;;;;3.59;100.00;98109.72;5040615;28;20087;-59
2023/01/16 09:06:39;;;;;;;1.92;1.20;;;;;;;3.59;100.00;98128.09;5048212;28;20387;-59
2023/01/16 09:09:06;;;;;;;1.77;1.05;;;;;;;3.61;100.00;98110.41;5047907;28;20028;-60
2023/01/16 09:14:19;;;;;;;3.03;1.00;;;;;;;3.60;100.00;98103.50;5051504;28;20087;-61
2023/01/16 09:16:44;;;;;;;2.13;1.02;;;;;;;3.64;100.00;98094.38;5024676;28;20207;-60
2023/01/16 09:19:09;;;;;;;0.95;0.85;;;;;;;3.60;100.00;98091.22;5046596;28;20017;-60
2023/01/16 09:21:35;;;;;;;1.00;1.00;;;;;;;3.60;100.00;98091.22;5052221;28;20536;-60
2023/01/16 09:24:00;;;;;;;2.17;1.00;;;;;;;3.60;100.00;98096.47;5051866;28;20032;-61
2023/01/16 09:26:25;;;;;;;1.83;0.85;;;;;;;3.62;100.00;98091.06;5041225;28;20044;-59
2023/01/16 09:28:51;;;;;;;1.15;1.05;;;;;;;3.60;100.00;98090.38;5033693;28;20028;-60
2023/01/16 09:31:18;;;;;;;0.90;0.90;;;;;;;3.60;100.00;98080.72;5036085;28;20436;-60
2023/01/16 09:33:44;;;;;;;1.00;0.82;;;;;;;3.61;100.00;98081.53;4991386;28;20037;-59
2023/01/16 09:36:09;;;;;;;3.00;1.20;;;;;;;3.61;100.00;98084.97;5030216;28;20537;-60
2023/01/16 09:38:34;;;;;;;1.30;1.20;;;;;;;3.62;100.00;98081.38;5029945;28;20031;-59
2023/01/16 09:41:01;;;;;;;1.38;1.10;;;;;;;3.63;100.00;98079.59;5036539;28;20386;-60
2023/01/16 09:43:35;;;;;;;1.13;0.90;;;;;;;3.64;100.00;98078.63;5036542;28;20550;-60
2023/01/16 09:46:17;;;;;;;1.02;0.95;;;;;;;3.65;100.00;98075.88;5036895;28;20025;-60
2023/01/16 09:49:21;;;;;;;1.00;1.00;;;;;;;3.69;100.00;98068.53;5041567;28;20465;-59
2023/01/16 10:00:17;;;;;;;0.93;0.90;;;;;;;3.74;100.00;98053.19;5041144;28;20052;-59
2023/01/16 10:02:43;;;;;;;0.80;0.80;;;;;;;3.74;100.00;98055.81;5035798;28;20013;-59
2023/01/16 10:05:10;;;;;;;0.70;0.70;;;;;;;3.75;100.00;98052.22;5033615;28;20025;-60
2023/01/16 10:07:38;;;;;;;1.65;0.70;;;;;;;3.79;100.00;98040.44;5032309;28;20053;-58
2023/01/16 10:10:14;;;;;;;1.20;1.00;;;;;;;3.82;100.00;98042.78;5032042;28;20056;-59
2023/01/16 10:12:54;;;;;;;1.00;1.00;;;;;;;3.86;100.00;98025.78;5034149;28;20025;-60
2023/01/16 10:15:32;;;;;;;1.10;1.00;;;;;;;3.93;100.00;98023.41;5032931;28;20028;-60
2023/01/16 10:18:21;;;;;;;0.77;0.75;;;;;;;4.01;100.00;98025.28;5034283;28;20038;-60
2023/01/16 10:20:53;;;;;;;0.98;0.80;;;;;;;4.08;100.00;98019.31;5027596;28;20037;-61
2023/01/16 10:23:52;;;;;;;1.17;0.82;;;;;;;4.17;100.00;98014.16;5012276;28;20502;-60
2023/01/16 10:26:26;;;;;;;1.70;0.93;;;;;;;4.20;100.00;98012.06;4952276;28;20032;-60
2023/01/16 10:29:03;;;;;;;0.88;0.70;;;;;;;4.25;100.00;98001.94;4949949;28;20055;-60
2023/01/16 10:31:40;;;;;;;0.73;0.70;;;;;;;4.29;100.00;97999.03;4982544;28;20065;-60
2023/01/16 10:34:42;;;;;;;0.95;0.80;;;;;;;4.32;100.00;97994.28;5031573;28;20021;-60
2023/01/16 10:37:09;;;;;;;1.58;0.65;;;;;;;4.35;100.00;97986.13;4966632;28;20042;-59
2023/01/16 10:39:37;;;;;;;1.73;0.77;;;;;;;4.37;100.00;97976.28;5032806;28;20017;-60
2023/01/16 10:50:57;;;;;;;0.73;0.73;;;;;;;4.49;100.00;97961.13;5033123;28;20558;-60
2023/01/16 10:53:22;;;;;;;1.10;0.75;;;;;;;4.49;100.00;97955.88;5034033;28;20013;-60
2023/01/16 10:55:51;;;;;;;1.27;0.80;;;;;;;4.51;100.00;97950.47;5031336;28;20029;-59
2023/01/16 10:58:28;;;;;;;1.25;0.70;;;;;;;4.54;100.00;97940.47;5033486;28;20075;-60
2023/01/16 11:01:04;;;;;;;0.60;0.60;;;;;;;4.55;100.00;97941.31;5033489;28;20025;-60
2023/01/16 11:03:35;;;;;;;0.75;0.60;;;;;;;4.55;100.00;97936.06;5033934;28;20017;-59
2023/01/16 11:06:11;;;;;;;0.90;0.90;;;;;;;4.56;100.00;97927.19;5033184;28;20094;-60
2023/01/16 11:08:36;;;;;;;1.55;0.80;;;;;;;4.56;100.00;97921.91;5034534;28;20126;-63
2023/01/16 11:11:02;;;;;;;1.95;0.80;;;;;;;4.57;100.00;97915.69;5040148;28;20120;-61
2023/01/16 11:19:17;;;;;;;1.27;0.80;;;;;;;4.63;100.00;97899.31;5045730;28;20078;-60
2023/01/16 11:22:09;;;;;;;0.75;0.75;;;;;;;4.66;100.00;97880.59;5052594;28;20037;-60
2023/01/16 11:24:38;;;;;;;0.77;0.77;;;;;;;4.68;100.00;97881.28;5049179;28;20051;-59
2023/01/16 11:27:15;;;;;;;0.82;0.82;;;;;;;4.76;100.00;97872.63;5043282;28;20030;-58
2023/01/16 11:29:43;;;;;;;0.70;0.70;;;;;;;4.74;100.00;97872.75;5054224;28;20056;-60
2023/01/16 11:32:11;;;;;;;0.77;0.77;;;;;;;4.78;100.00;97868.03;5053599;28;20536;-59
2023/01/16 11:34:43;;;;;;;0.95;0.95;;;;;;;4.77;100.00;97859.31;5053169;28;20098;-60
2023/01/16 11:37:12;;;;;;;0.70;0.70;;;;;;;4.79;100.00;97857.34;5046485;28;20032;-60
2023/01/16 11:39:37;;;;;;;0.80;0.80;;;;;;;4.81;100.00;97849.31;5048112;28;20045;-58
2023/01/16 11:47:49;;;;;;;0.90;0.90;;;;;;;4.84;100.00;97827.97;5052393;28;20048;-60
2023/01/16 11:50:28;;;;;;;1.67;1.00;;;;;;;4.82;100.00;97825.50;5053336;28;20479;-59
2023/01/16 11:52:53;;;;;;;1.08;0.95;;;;;;;4.84;100.00;97829.78;5050595;28;20544;-59
2023/01/16 11:55:18;;;;;;;1.65;0.80;;;;;;;4.85;100.00;97818.28;5053215;28;20041;-60
2023/01/16 11:57:56;;;;;;;1.00;0.90;;;;;;;4.84;100.00;97814.81;5052698;28;20033;-61
2023/01/16 12:00:21;;;;;;;1.10;1.00;;;;;;;4.84;100.00;97806.13;5052773;28;20063;-60
2023/01/16 12:03:08;;;;;;;1.63;1.20;;;;;;;4.82;100.00;97804.47;5050409;28;20025;-60
2023/01/16 12:05:58;;;;;;;1.98;1.10;;;;;;;4.83;100.00;97797.41;5051419;28;20150;-60
2023/01/16 12:09:08;;;;;;;0.90;0.90;;;;;;;4.84;100.00;97796.41;5051994;28;20098;-59
2023/01/16 12:11:47;;;;;;;1.73;0.82;;;;;;;4.85;100.00;97784.94;5034573;28;20048;-60
2023/01/16 12:14:22;;;;;;;1.05;0.95;;;;;;;4.83;100.00;97771.13;5041903;28;20041;-59
2023/01/16 12:16:56;;;;;;;2.13;0.85;;;;;;;4.89;100.00;97777.53;5049488;28;20082;-60
2023/01/16 12:19:49;;;;;;;1.45;1.13;;;;;;;4.91;100.00;97767.69;5042023;28;20476;-61
2023/01/16 12:22:33;;;;;;;0.90;0.90;;;;;;;4.91;100.00;97762.41;5034346;28;20060;-59
2023/01/16 12:25:17;;;;;;;0.77;0.77;;;;;;;4.96;100.00;97761.00;5036982;28;20218;-60
2023/01/16 12:27:56;;;;;;;0.70;0.70;;;;;;;5.02;100.00;97756.88;5038374;28;20026;-60
2023/01/16 12:31:07;;;;;;;0.52;0.52;;;;;;;5.04;100.00;97754.09;5037238;28;20079;-60
2023/01/16 12:33:48;;;;;;;0.85;0.70;;;;;;;5.08;100.00;97744.91;5036283;28;20095;-59
2023/01/16 12:36:48;;;;;;;0.70;0.70;;;;;;;5.13;100.00;97737.34;5037645;28;20249;-59
2023/01/16 12:39:34;;;;;;;0.90;0.75;;;;;;;5.15;100.00;97732.78;5024877;28;20083;-59